createdAt,value
2023-04-02T00:00:00.305Z,2.2
2023-04-02T00:05:00.258Z,2.1
2023-04-02T00:10:00.473Z,2.1
2023-04-02T00:15:00.268Z,2.1
2023-04-02T00:20:00.314Z,2.0
2023-04-02T00:25:00.285Z,2.2
2023-04-02T00:30:00.277Z,2.2
2023-04-02T00:35:00.249Z,2.2
2023-04-02T00:40:00.301Z,2.1
2023-04-02T00:45:00.260Z,2.3
2023-04-02T00:50:00.296Z,2.2
2023-04-02T00:55:00.298Z,2.2
2023-04-02T01:00:00.306Z,2.3
2023-04-02T01:05:00.265Z,2.2
2023-04-02T01:10:00.323Z,2.2
2023-04-02T01:15:00.297Z,2.2
2023-04-02T01:20:00.284Z,2.3
2023-04-02T01:25:00.250Z,2.4
2023-04-02T01:30:00.297Z,2.3
2023-04-02T01:35:00.245Z,2.3
2023-04-02T01:40:00.273Z,2.4
2023-04-02T01:45:00.280Z,2.4
2023-04-02T01:50:00.291Z,2.4
2023-04-02T01:55:00.255Z,2.4
2023-04-02T02:00:00.307Z,2.5
2023-04-02T02:05:00.265Z,2.4
2023-04-02T02:10:00.294Z,2.4
2023-04-02T02:15:00.252Z,2.3
2023-04-02T02:20:00.291Z,2.3
2023-04-02T02:25:00.258Z,2.3
2023-04-02T02:30:00.300Z,2.4
2023-04-02T02:35:00.292Z,2.3
2023-04-02T02:40:00.298Z,2.3
2023-04-02T02:45:00.253Z,2.3
2023-04-02T02:50:00.288Z,2.2
2023-04-02T02:55:00.272Z,2.2
2023-04-02T03:00:00.303Z,2.1
2023-04-02T03:05:00.280Z,2.2
2023-04-02T03:10:00.283Z,2.2
2023-04-02T03:15:00.253Z,2.1
2023-04-02T03:20:00.305Z,2.1
2023-04-02T03:25:00.242Z,2.1
2023-04-02T03:30:00.299Z,2.2
2023-04-02T03:35:00.254Z,2.1
2023-04-02T03:40:00.281Z,2.1
2023-04-02T03:45:00.307Z,2.0
2023-04-02T03:50:00.294Z,2.2
2023-04-02T03:55:00.258Z,2.2
2023-04-02T04:00:00.307Z,2.2
2023-04-02T04:05:00.283Z,2.2
2023-04-02T04:10:00.292Z,2.2
2023-04-02T04:15:00.229Z,2.1
2023-04-02T04:20:00.281Z,2.2
2023-04-02T04:25:00.283Z,1.8
2023-04-02T04:30:00.283Z,1.9
2023-04-02T04:35:00.249Z,2.1
2023-04-02T04:40:00.294Z,2.1
2023-04-02T04:45:00.263Z,2.2
2023-04-02T04:50:00.288Z,1.9
2023-04-02T04:55:00.278Z,2.1
2023-04-02T05:00:00.316Z,2.3
2023-04-02T05:05:00.288Z,2.2
2023-04-02T05:10:00.281Z,2.3
2023-04-02T05:15:00.284Z,2.4
2023-04-02T05:20:00.275Z,2.5
2023-04-02T05:25:00.247Z,2.5
2023-04-02T05:30:00.279Z,2.7
2023-04-02T05:35:00.294Z,2.7
2023-04-02T05:40:00.291Z,2.9
2023-04-02T05:45:00.243Z,2.7
2023-04-02T05:50:00.334Z,2.8
2023-04-02T05:55:00.276Z,2.9
2023-04-02T06:00:00.303Z,3.0
2023-04-02T06:05:00.237Z,2.9
2023-04-02T06:10:00.306Z,3.1
2023-04-02T06:15:00.234Z,3.0
2023-04-02T06:20:00.298Z,3.3
2023-04-02T06:25:00.273Z,3.3
2023-04-02T06:30:00.291Z,3.5
2023-04-02T06:35:00.249Z,3.5
2023-04-02T06:40:00.292Z,3.6
2023-04-02T06:45:00.305Z,3.7
2023-04-02T06:50:00.305Z,3.9
2023-04-02T06:55:00.316Z,3.8
2023-04-02T07:00:00.304Z,4.0
2023-04-02T07:05:00.503Z,4.2
2023-04-02T07:10:00.312Z,4.3
2023-04-02T07:15:00.240Z,4.3
2023-04-02T07:20:00.373Z,4.3
2023-04-02T07:25:00.232Z,4.6
2023-04-02T07:30:00.288Z,4.6
2023-04-02T07:35:00.299Z,4.9
2023-04-02T07:40:00.281Z,4.8
2023-04-02T07:45:00.256Z,5.0
2023-04-02T07:50:00.425Z,5.4
2023-04-02T07:55:00.295Z,5.7
2023-04-02T08:00:00.265Z,5.9
2023-04-02T08:05:00.285Z,6.2
2023-04-02T08:10:00.251Z,6.9
2023-04-02T08:15:00.288Z,7.6
2023-04-02T08:20:00.370Z,8.1
2023-04-02T08:25:00.308Z,7.9
2023-04-02T08:30:00.238Z,8.8
2023-04-02T08:35:00.285Z,10.0
2023-04-02T08:40:00.313Z,14.0
2023-04-02T08:45:03.924Z,15.5
2023-04-02T08:50:00.274Z,10.3
2023-04-02T08:55:00.457Z,13.3
2023-04-02T09:00:00.282Z,15.4
2023-04-02T09:05:00.387Z,14.0
2023-04-02T09:10:00.233Z,16.2
2023-04-02T09:15:00.308Z,16.2
2023-04-02T09:20:00.236Z,16.2
2023-04-02T09:25:00.284Z,16.5
2023-04-02T09:30:00.271Z,16.4
2023-04-02T09:35:00.280Z,17.6
2023-04-02T09:40:00.240Z,16.9
2023-04-02T09:45:00.290Z,15.8
2023-04-02T09:50:00.280Z,15.4
2023-04-02T09:55:00.284Z,13.4
2023-04-02T10:00:00.247Z,12.8
2023-04-02T10:05:00.289Z,13.2
2023-04-02T10:10:00.281Z,13.3
2023-04-02T10:15:00.308Z,13.6
2023-04-02T10:20:00.292Z,12.6
2023-04-02T10:25:00.299Z,13.0
2023-04-02T10:30:00.228Z,12.1
2023-04-02T10:35:00.287Z,11.9
2023-04-02T10:40:00.292Z,13.3
2023-04-02T10:45:00.275Z,13.2
2023-04-02T10:50:00.244Z,12.8
2023-04-02T10:55:00.304Z,13.4
2023-04-02T11:00:00.258Z,12.8
2023-04-02T11:05:01.788Z,13.1
2023-04-02T11:10:00.296Z,12.3
2023-04-02T11:15:00.311Z,12.5
2023-04-02T11:20:00.258Z,12.9
2023-04-02T11:25:00.298Z,12.7
2023-04-02T11:30:00.256Z,12.7
2023-04-02T11:35:07.145Z,12.1
2023-04-02T11:40:00.388Z,12.3
2023-04-02T11:45:00.360Z,12.0
2023-04-02T11:50:00.246Z,13.2
2023-04-02T11:55:00.293Z,13.4
2023-04-02T12:00:00.303Z,13.3
2023-04-02T12:05:00.303Z,13.4
2023-04-02T12:10:00.253Z,12.8
2023-04-02T12:15:00.290Z,11.2
2023-04-02T12:20:00.294Z,12.3
2023-04-02T12:25:00.520Z,11.1
2023-04-02T12:30:00.243Z,10.6
2023-04-02T12:35:00.298Z,10.9
2023-04-02T12:40:00.247Z,11.5
2023-04-02T12:45:00.308Z,11.9
2023-04-02T12:50:00.273Z,12.2
2023-04-02T12:55:00.317Z,12.0
2023-04-02T13:00:00.300Z,11.8
2023-04-02T13:05:00.315Z,11.6
2023-04-02T13:10:00.302Z,11.8
2023-04-02T13:15:00.330Z,11.9
2023-04-02T13:20:00.251Z,11.6
2023-04-02T13:25:00.334Z,11.1
2023-04-02T13:30:00.257Z,11.7
2023-04-02T13:35:00.307Z,11.9
2023-04-02T13:40:00.294Z,12.1
2023-04-02T13:45:00.307Z,12.1
2023-04-02T13:50:00.266Z,11.9
2023-04-02T13:55:00.298Z,12.1
2023-04-02T14:00:00.302Z,12.4
2023-04-02T14:05:00.300Z,12.4
2023-04-02T14:10:00.253Z,12.3
2023-04-02T14:15:00.291Z,12.3
2023-04-02T14:20:00.355Z,11.6
2023-04-02T14:25:00.301Z,12.1
2023-04-02T14:30:00.260Z,11.9
2023-04-02T14:35:00.295Z,11.6
2023-04-02T14:40:00.274Z,11.8
2023-04-02T14:45:00.293Z,11.4
2023-04-02T14:50:00.308Z,10.1
2023-04-02T14:55:00.304Z,10.9
2023-04-02T15:00:00.253Z,10.1
2023-04-02T15:05:01.629Z,10.4
2023-04-02T15:10:00.287Z,10.0
2023-04-02T15:15:00.297Z,10.0
2023-04-02T15:20:00.244Z,9.5
2023-04-02T15:25:00.291Z,9.4
2023-04-02T15:30:00.258Z,8.7
2023-04-02T15:35:00.307Z,8.4
2023-04-02T15:40:00.240Z,8.2
2023-04-02T15:45:00.326Z,8.2
2023-04-02T15:50:00.240Z,7.8
2023-04-02T15:55:00.290Z,7.4
2023-04-02T16:00:00.288Z,8.0
2023-04-02T16:05:00.293Z,8.1
2023-04-02T16:10:00.250Z,7.8
2023-04-02T16:15:00.289Z,7.6
2023-04-02T16:20:00.244Z,7.6
2023-04-02T16:25:00.294Z,7.4
2023-04-02T16:30:00.302Z,7.8
2023-04-02T16:35:15.244Z,8.1
2023-04-02T16:40:00.271Z,8.6
2023-04-02T16:45:00.316Z,8.1
2023-04-02T16:50:00.280Z,8.0
2023-04-02T16:55:00.301Z,7.6
2023-04-02T17:00:00.239Z,7.4
2023-04-02T17:05:00.313Z,7.3
2023-04-02T17:10:00.285Z,7.0
2023-04-02T17:15:00.474Z,7.0
2023-04-02T17:20:00.281Z,7.0
2023-04-02T17:25:00.290Z,6.7
2023-04-02T17:30:00.254Z,6.2
2023-04-02T17:35:00.323Z,6.3
2023-04-02T17:40:00.300Z,6.6
2023-04-02T17:45:00.301Z,6.4
2023-04-02T17:50:00.244Z,6.4
2023-04-02T17:55:00.293Z,6.3
2023-04-02T18:00:00.292Z,6.3
2023-04-02T18:05:00.294Z,6.2
2023-04-02T18:10:00.257Z,6.1
2023-04-02T18:15:00.290Z,5.9
2023-04-02T18:20:00.287Z,5.8
2023-04-02T18:25:00.297Z,5.6
2023-04-02T18:30:00.273Z,5.8
2023-04-02T18:35:00.342Z,5.8
2023-04-02T18:40:00.258Z,5.6
2023-04-02T18:45:00.368Z,5.5
2023-04-02T18:50:00.295Z,5.5
2023-04-02T18:55:00.461Z,5.4
2023-04-02T19:00:00.248Z,5.4
2023-04-02T19:05:00.273Z,5.3
2023-04-02T19:10:00.285Z,5.2
2023-04-02T19:15:00.331Z,5.1
2023-04-02T19:20:00.261Z,5.2
2023-04-02T19:25:00.843Z,5.0
2023-04-02T19:30:00.262Z,4.9
2023-04-02T19:35:00.314Z,4.9
2023-04-02T19:40:00.288Z,4.8
2023-04-02T19:45:00.398Z,4.7
2023-04-02T19:50:00.251Z,4.7
2023-04-02T19:55:00.307Z,4.8
2023-04-02T20:00:00.287Z,4.7
2023-04-02T20:05:00.295Z,4.7
2023-04-02T20:10:00.302Z,4.7
2023-04-02T20:15:00.285Z,4.6
2023-04-02T20:20:00.283Z,4.6
2023-04-02T20:25:00.287Z,4.6
2023-04-02T20:30:00.306Z,4.4
2023-04-02T20:35:00.309Z,4.3
2023-04-02T20:40:00.284Z,4.3
2023-04-02T20:45:00.309Z,4.2
2023-04-02T20:50:00.257Z,4.0
2023-04-02T20:55:00.291Z,4.1
2023-04-02T21:00:00.282Z,4.2
2023-04-02T21:05:00.371Z,4.2
2023-04-02T21:10:00.265Z,4.0
2023-04-02T21:15:02.491Z,3.9
2023-04-02T21:20:00.285Z,4.0
2023-04-02T21:25:00.316Z,3.9
2023-04-02T21:30:00.260Z,3.9
2023-04-02T21:35:00.296Z,3.9
2023-04-02T21:40:00.327Z,3.8
2023-04-02T21:45:00.289Z,3.7
2023-04-02T21:50:00.248Z,3.9
2023-04-02T21:55:00.294Z,3.8
2023-04-02T22:00:00.289Z,3.9
2023-04-02T22:05:00.296Z,3.9
2023-04-02T22:10:00.280Z,3.9
2023-04-02T22:15:00.316Z,3.9
2023-04-02T22:20:00.247Z,3.8
2023-04-02T22:25:00.309Z,3.8
2023-04-02T22:30:00.261Z,3.8
2023-04-02T22:35:00.293Z,3.7
2023-04-02T22:40:00.270Z,3.6
2023-04-02T22:45:00.291Z,3.5
2023-04-02T22:50:00.253Z,3.5
2023-04-02T22:55:00.286Z,3.5
2023-04-02T23:00:00.253Z,3.3
2023-04-02T23:05:00.342Z,3.3
2023-04-02T23:10:00.281Z,3.3
2023-04-02T23:15:00.281Z,3.3
2023-04-02T23:20:00.291Z,3.3
2023-04-02T23:25:00.257Z,3.2
2023-04-02T23:30:00.271Z,3.2
2023-04-02T23:35:00.287Z,3.1
2023-04-02T23:40:00.276Z,3.0
2023-04-02T23:45:00.280Z,3.1
2023-04-02T23:50:00.308Z,2.9
2023-04-02T23:55:00.300Z,3.0
